M/T Pazar — TCMC — position and weather

sailwx.info

Track history (hours):
 
Tides and Currents Weather Stations Pressure Air Temp Water Temp Dewpoint Dewpoint Depression Visibility Wind Speed Wind Dir Waves Ship Positions

M/T Pazar

Last reported at 2017-Sep-17 04:02 UTC. Time now 2017-Sep-19 15:39 UTC.
Position N 39°22' W 009°51'.

Length 85 m; draft 5.5 m.

Type: Tanker. MMSI: 271000251.

Date/timePositionNaut miles runAvg speedWind from/ knotsBaromVisibWave heightAir tempDewpointWater temp
2017-Sep-17 04:02N 39°22' W 009°51'1 9.4
2017-Sep-17 03:58N 39°22' W 009°51'5 9.6
2017-Sep-17 03:29N 39°17' W 009°51'6 9.7
2017-Sep-17 02:52N 39°11' W 009°51'4 9.7
2017-Sep-17 02:30N 39°08' W 009°51'5 9.8
2017-Sep-17 02:00N 39°03' W 009°51'5 9.8
2017-Sep-17 01:30N 38°58' W 009°51'5 9.7
2017-Sep-17 01:00N 38°53' W 009°51'5 9.5
2017-Sep-17 00:30N 38°48' W 009°51'5 9.5
2017-Sep-17 00:00N 38°43' W 009°51'5 9.4
2017-Sep-16 23:30N 38°39' W 009°50'5 9.1
2017-Sep-16 23:00N 38°34' W 009°49'4 8.8
2017-Sep-16 22:30N 38°30' W 009°47'5 8.8
2017-Sep-16 21:55N 38°25' W 009°45'4 8.6
2017-Sep-16 21:29N 38°22' W 009°44'4 8.6
2017-Sep-16 21:00N 38°18' W 009°43'6 8.6
2017-Sep-16 20:16N 38°12' W 009°41'3 8.5
2017-Sep-16 19:56N 38°09' W 009°40'4 8.4
2017-Sep-16 19:30N 38°05' W 009°39'4 7.9
2017-Sep-16 19:00N 38°01' W 009°38'4 7.5
2017-Sep-16 18:30N 37°58' W 009°37'4 7.2
2017-Sep-16 18:00N 37°54' W 009°36'4 7.3
2017-Sep-16 17:30N 37°51' W 009°35'4 7.4
2017-Sep-16 17:00N 37°47' W 009°33'4 7.1
2017-Sep-16 16:30N 37°44' W 009°33'4 7.2
2017-Sep-16 16:00N 37°40' W 009°32'  
2017-Sep-11 14:44N 35°05' W 007°22'2910.4
2017-Sep-11 11:58N 35°21' W 006°52'510.9
2017-Sep-11 11:28N 35°24' W 006°47'510.6
2017-Sep-11 11:00N 35°28' W 006°43'510.0
2017-Sep-11 10:30N 35°31' W 006°38'65 9.0
2017-Sep-11 03:14N 36°01' W 005°26'2 8.2
2017-Sep-11 02:59N 36°01' W 005°24'4 7.7
2017-Sep-11 02:30N 36°03' W 005°20'219 4.5
2017-Sep-09 01:40N 36°36' W 000°52'310.5
2017-Sep-09 01:22N 36°37' W 000°48'510.6
2017-Sep-09 00:53N 36°38' W 000°41'410.7
2017-Sep-09 00:29N 36°38' W 000°36'3911.0
2017-Sep-08 20:54N 36°47' E 000°12'511.0
2017-Sep-08 20:28N 36°48' E 000°18'511.0
2017-Sep-08 19:59N 36°49' E 000°24'511.1
2017-Sep-08 19:30N 36°50' E 000°30'611.2
2017-Sep-08 19:00N 36°52' E 000°37'811.3
2017-Sep-08 18:20N 36°53' E 000°46'611.2
2017-Sep-08 17:47N 36°55' E 000°54'310.8
2017-Sep-08 17:30N 36°56' E 000°58'  
Track history (hours):
 
Tides and Currents Weather Stations Pressure Air Temp Water Temp Dewpoint Dewpoint Depression Visibility Wind Speed Wind Dir Waves Ship Positions

M/T Pazar

Last reported at 2017-Sep-17 04:02 UTC. Time now 2017-Sep-19 15:39 UTC.
Position N 39°22' W 009°51'.

Length 85 m; draft 5.5 m.

Type: Tanker. MMSI: 271000251.

Date/timePositionNaut miles runAvg speedWind from/ knotsBaromVisibWave heightAir tempDewpointWater temp
2017-Sep-17 04:02N 39°22' W 009°51'1 9.4
2017-Sep-17 03:58N 39°22' W 009°51'5 9.6
2017-Sep-17 03:29N 39°17' W 009°51'6 9.7
2017-Sep-17 02:52N 39°11' W 009°51'4 9.7
2017-Sep-17 02:30N 39°08' W 009°51'5 9.8
2017-Sep-17 02:00N 39°03' W 009°51'5 9.8
2017-Sep-17 01:30N 38°58' W 009°51'5 9.7
2017-Sep-17 01:00N 38°53' W 009°51'5 9.5
2017-Sep-17 00:30N 38°48' W 009°51'5 9.5
2017-Sep-17 00:00N 38°43' W 009°51'5 9.4
2017-Sep-16 23:30N 38°39' W 009°50'5 9.1
2017-Sep-16 23:00N 38°34' W 009°49'4 8.8
2017-Sep-16 22:30N 38°30' W 009°47'5 8.8
2017-Sep-16 21:55N 38°25' W 009°45'4 8.6
2017-Sep-16 21:29N 38°22' W 009°44'4 8.6
2017-Sep-16 21:00N 38°18' W 009°43'6 8.6
2017-Sep-16 20:16N 38°12' W 009°41'3 8.5
2017-Sep-16 19:56N 38°09' W 009°40'4 8.4
2017-Sep-16 19:30N 38°05' W 009°39'4 7.9
2017-Sep-16 19:00N 38°01' W 009°38'4 7.5
2017-Sep-16 18:30N 37°58' W 009°37'4 7.2
2017-Sep-16 18:00N 37°54' W 009°36'4 7.3
2017-Sep-16 17:30N 37°51' W 009°35'4 7.4
2017-Sep-16 17:00N 37°47' W 009°33'4 7.1
2017-Sep-16 16:30N 37°44' W 009°33'4 7.2
2017-Sep-16 16:00N 37°40' W 009°32'  
2017-Sep-11 14:44N 35°05' W 007°22'2910.4
2017-Sep-11 11:58N 35°21' W 006°52'510.9
2017-Sep-11 11:28N 35°24' W 006°47'510.6
2017-Sep-11 11:00N 35°28' W 006°43'510.0
2017-Sep-11 10:30N 35°31' W 006°38'65 9.0
2017-Sep-11 03:14N 36°01' W 005°26'2 8.2
2017-Sep-11 02:59N 36°01' W 005°24'4 7.7
2017-Sep-11 02:30N 36°03' W 005°20'219 4.5
2017-Sep-09 01:40N 36°36' W 000°52'310.5
2017-Sep-09 01:22N 36°37' W 000°48'510.6
2017-Sep-09 00:53N 36°38' W 000°41'410.7
2017-Sep-09 00:29N 36°38' W 000°36'3911.0
2017-Sep-08 20:54N 36°47' E 000°12'511.0
2017-Sep-08 20:28N 36°48' E 000°18'511.0
2017-Sep-08 19:59N 36°49' E 000°24'511.1
2017-Sep-08 19:30N 36°50' E 000°30'611.2
2017-Sep-08 19:00N 36°52' E 000°37'811.3
2017-Sep-08 18:20N 36°53' E 000°46'611.2
2017-Sep-08 17:47N 36°55' E 000°54'310.8
2017-Sep-08 17:30N 36°56' E 000°58'  

Dump ship's entire track history